Time;durP1;ratioP1;P1;durP2;ratioP2;P2;SDS_P1;SDS_P2;PMS_P1;PMS_P2;Temp;Humidity;BMP_temperature;BMP_pressure;BME280_temperature;BME280_humidity;BME280_pressure;Samples;Min_cycle;Max_cycle;Signal;HPM_P1;HPM_P2
2023/03/15 00:00:54;;;;;;;6.80;1.04;;;2.20;99.90;;;;;;5086396;28;1056208;-75
2023/03/15 00:03:20;;;;;;;2.58;0.77;;;2.20;99.90;;;;;;5098205;28;20189;-79
2023/03/15 00:05:48;;;;;;;1.02;0.63;;;2.20;99.90;;;;;;5098282;28;20044;-79
2023/03/15 00:08:14;;;;;;;2.83;0.57;;;2.20;99.90;;;;;;5098767;28;20036;-80
2023/03/15 00:10:45;;;;;;;1.65;0.63;;;2.20;99.90;;;;;;5098306;28;20126;-79
2023/03/15 00:13:11;;;;;;;2.10;0.70;;;2.20;99.90;;;;;;5081330;28;20051;-79
2023/03/15 00:15:48;;;;;;;2.33;0.73;;;2.20;99.90;;;;;;5081543;28;20039;-79
2023/03/15 00:18:15;;;;;;;0.68;0.50;;;2.20;99.90;;;;;;5081192;28;20039;-79
2023/03/15 00:20:40;;;;;;;4.88;1.45;;;2.20;99.90;;;;;;5081200;28;20050;-79
2023/03/15 00:23:06;;;;;;;2.83;0.65;;;2.20;99.90;;;;;;5081057;28;20036;-79
2023/03/15 00:25:32;;;;;;;2.72;0.55;;;2.30;99.90;;;;;;5097771;28;20088;-80
2023/03/15 00:27:58;;;;;;;2.25;0.85;;;2.30;99.90;;;;;;5097879;28;20431;-79
2023/03/15 00:30:23;;;;;;;0.93;0.52;;;2.30;99.90;;;;;;5098016;28;20505;-79
2023/03/15 00:32:52;;;;;;;1.13;1.02;;;2.30;99.90;;;;;;5097806;28;20035;-79
2023/03/15 00:35:18;;;;;;;0.57;0.40;;;2.40;99.90;;;;;;5097306;28;20407;-79
2023/03/15 00:37:44;;;;;;;0.82;0.32;;;2.50;99.90;;;;;;5097673;28;20039;-78
2023/03/15 00:40:11;;;;;;;0.50;0.32;;;2.50;99.90;;;;;;5081202;28;20046;-79
2023/03/15 00:42:37;;;;;;;0.75;0.60;;;2.40;99.90;;;;;;5081140;28;20048;-78
2023/03/15 00:45:04;;;;;;;3.72;1.02;;;2.40;99.90;;;;;;5097637;28;20043;-79
2023/03/15 00:47:30;;;;;;;4.05;0.80;;;2.40;99.90;;;;;;5080854;28;20070;-79
2023/03/15 00:49:55;;;;;;;0.40;0.40;;;2.50;99.90;;;;;;5080854;28;20043;-79
2023/03/15 00:52:21;;;;;;;0.88;0.40;;;2.50;99.90;;;;;;5080793;28;20028;-78
2023/03/15 00:54:51;;;;;;;7.28;0.70;;;2.40;99.90;;;;;;5097766;28;20032;-79
2023/03/15 00:57:17;;;;;;;1.83;0.68;;;2.40;99.90;;;;;;5097407;28;20098;-79
2023/03/15 00:59:43;;;;;;;3.47;0.82;;;2.40;99.90;;;;;;5097471;28;20075;-78
2023/03/15 01:02:10;;;;;;;0.30;0.30;;;2.40;99.90;;;;;;5097335;28;20048;-79
2023/03/15 01:04:35;;;;;;;2.50;0.47;;;2.30;99.90;;;;;;5097239;28;20035;-79
2023/03/15 01:07:01;;;;;;;2.08;0.93;;;2.30;99.90;;;;;;5097107;28;20044;-79
2023/03/15 01:09:27;;;;;;;4.80;0.60;;;2.30;99.90;;;;;;5080660;28;20044;-78
2023/03/15 01:11:52;;;;;;;2.05;0.47;;;2.20;99.90;;;;;;5080130;28;20032;-79
2023/03/15 01:14:18;;;;;;;2.35;0.40;;;2.20;99.90;;;;;;5080184;28;20498;-79
2023/03/15 01:16:46;;;;;;;0.40;0.28;;;2.20;99.90;;;;;;5096943;28;20455;-79
2023/03/15 01:19:12;;;;;;;0.85;0.55;;;2.20;99.90;;;;;;5096902;28;20120;-79
2023/03/15 01:21:39;;;;;;;2.05;0.63;;;2.20;99.90;;;;;;5097055;28;20051;-79
2023/03/15 01:24:04;;;;;;;2.17;0.60;;;2.20;99.90;;;;;;5096773;28;20043;-79
2023/03/15 01:26:30;;;;;;;7.43;0.50;;;2.10;99.90;;;;;;5096519;28;20518;-79
2023/03/15 01:28:56;;;;;;;1.33;0.80;;;2.10;99.90;;;;;;5096600;28;20031;-79
2023/03/15 01:31:27;;;;;;;0.63;0.22;;;2.10;99.90;;;;;;5096685;28;20443;-79
2023/03/15 01:33:54;;;;;;;2.85;0.50;;;2.10;99.90;;;;;;5096723;28;20139;-79
2023/03/15 01:36:19;;;;;;;0.43;0.40;;;2.00;99.90;;;;;;5096635;28;20044;-79
2023/03/15 01:38:45;;;;;;;3.53;0.50;;;2.00;99.90;;;;;;5080059;28;20509;-79
2023/03/15 01:41:12;;;;;;;1.88;0.55;;;2.00;99.90;;;;;;5096397;28;20039;-79
2023/03/15 01:43:38;;;;;;;1.92;0.70;;;2.00;99.90;;;;;;5096615;28;20036;-79
2023/03/15 01:46:16;;;;;;;0.40;0.30;;;2.00;99.90;;;;;;5078725;28;20043;-79
2023/03/15 01:49:11;;;;;;;0.95;0.35;;;2.10;99.90;;;;;;5079393;28;20043;-79
2023/03/15 01:51:52;;;;;;;0.20;0.20;;;2.10;99.90;;;;;;5096362;28;20097;-79
2023/03/15 01:54:40;;;;;;;1.20;0.65;;;2.10;99.90;;;;;;5079656;28;20104;-79
2023/03/15 01:57:15;;;;;;;1.17;0.63;;;2.10;99.90;;;;;;5096353;28;20035;-79
2023/03/15 01:59:50;;;;;;;3.40;0.40;;;2.10;99.90;;;;;;5096319;28;20043;-79
2023/03/15 02:02:16;;;;;;;1.73;0.90;;;2.00;99.90;;;;;;5096263;28;20043;-78
2023/03/15 02:04:48;;;;;;;4.25;0.90;;;2.00;99.90;;;;;;5096028;28;20406;-79
2023/03/15 02:07:16;;;;;;;3.45;0.68;;;2.00;99.90;;;;;;5096104;28;20054;-79
2023/03/15 02:09:52;;;;;;;4.65;0.52;;;1.90;99.90;;;;;;5096477;28;20023;-79
2023/03/15 02:12:18;;;;;;;6.93;0.57;;;1.90;99.90;;;;;;5078970;28;20027;-79
2023/03/15 02:14:44;;;;;;;0.98;0.40;;;1.90;99.90;;;;;;5079226;28;20535;-79
2023/03/15 02:17:10;;;;;;;5.50;0.60;;;1.80;99.90;;;;;;5095836;28;20050;-79
2023/03/15 02:19:59;;;;;;;0.93;0.50;;;1.80;99.90;;;;;;5095996;28;20051;-79
2023/03/15 02:22:37;;;;;;;0.35;0.30;;;1.70;99.90;;;;;;5078901;28;20563;-79
2023/03/15 02:25:12;;;;;;;5.28;0.63;;;1.70;99.90;;;;;;5095848;28;20039;-80
2023/03/15 02:27:39;;;;;;;2.08;0.30;;;1.70;99.90;;;;;;5078995;28;20047;-80
2023/03/15 02:30:06;;;;;;;0.52;0.32;;;1.60;99.90;;;;;;5096100;28;20043;-79
2023/03/15 02:32:31;;;;;;;7.35;0.80;;;1.60;99.90;;;;;;5095922;28;20031;-79
2023/03/15 02:34:57;;;;;;;5.45;0.73;;;1.50;99.90;;;;;;5078803;28;20087;-79
2023/03/15 02:37:23;;;;;;;3.45;0.45;;;1.50;99.90;;;;;;5095434;28;20038;-79
2023/03/15 02:39:48;;;;;;;4.45;0.40;;;1.50;99.90;;;;;;5095496;28;20031;-79
2023/03/15 02:42:15;;;;;;;0.95;0.65;;;1.40;99.90;;;;;;5095523;28;20039;-79
2023/03/15 02:44:43;;;;;;;0.63;0.28;;;1.40;99.90;;;;;;5095393;28;20053;-79
2023/03/15 02:47:14;;;;;;;1.23;0.40;;;1.40;99.90;;;;;;5095250;28;20043;-79
2023/03/15 02:49:45;;;;;;;1.42;0.47;;;1.40;99.90;;;;;;5095550;28;20050;-79
2023/03/15 02:52:12;;;;;;;0.90;0.40;;;1.40;99.90;;;;;;5078422;28;20031;-79
2023/03/15 02:54:42;;;;;;;0.73;0.40;;;1.30;99.90;;;;;;5095243;28;20043;-79
2023/03/15 02:57:08;;;;;;;0.43;0.30;;;1.30;99.90;;;;;;5094972;28;20078;-79
2023/03/15 02:59:34;;;;;;;2.72;0.50;;;1.20;99.90;;;;;;5078414;28;20044;-79
2023/03/15 03:01:59;;;;;;;0.65;0.40;;;1.30;99.90;;;;;;5078334;28;20070;-79
2023/03/15 03:04:25;;;;;;;0.75;0.32;;;1.20;99.90;;;;;;5095194;28;20052;-79
2023/03/15 03:06:50;;;;;;;1.45;0.40;;;1.20;99.90;;;;;;5095212;28;20047;-80
2023/03/15 03:09:16;;;;;;;4.70;0.70;;;1.20;99.90;;;;;;5095410;28;20036;-79
2023/03/15 03:11:42;;;;;;;0.30;0.30;;;1.10;99.90;;;;;;5095086;28;20531;-79
2023/03/15 03:14:08;;;;;;;1.50;0.55;;;1.20;99.90;;;;;;5095055;28;20064;-79
2023/03/15 03:16:33;;;;;;;0.57;0.40;;;1.10;99.90;;;;;;5094941;28;20035;-79
2023/03/15 03:18:59;;;;;;;0.57;0.50;;;1.10;99.90;;;;;;5078430;28;20517;-79
2023/03/15 03:21:24;;;;;;;2.30;0.47;;;1.10;99.90;;;;;;5095002;28;20532;-79
2023/03/15 03:23:50;;;;;;;1.95;0.70;;;1.00;99.90;;;;;;5078327;28;20036;-79
2023/03/15 03:26:17;;;;;;;0.28;0.22;;;1.00;99.90;;;;;;5094928;28;20180;-79
2023/03/15 03:28:47;;;;;;;1.20;0.65;;;1.00;99.90;;;;;;5095173;28;20040;-79
2023/03/15 03:31:24;;;;;;;0.43;0.35;;;1.00;99.90;;;;;;5094841;28;20421;-79
2023/03/15 03:33:51;;;;;;;3.63;0.40;;;1.00;99.90;;;;;;5078039;28;20047;-79
2023/03/15 03:36:17;;;;;;;2.88;0.57;;;1.00;99.90;;;;;;5094743;28;20071;-79
2023/03/15 03:38:45;;;;;;;0.22;0.20;;;0.90;99.90;;;;;;5077963;28;20110;-79
2023/03/15 03:41:11;;;;;;;1.15;0.30;;;0.90;99.90;;;;;;5094696;28;20050;-79
2023/03/15 03:43:37;;;;;;;1.48;0.63;;;0.90;99.90;;;;;;5077975;28;20045;-79
2023/03/15 03:46:03;;;;;;;7.28;0.50;;;0.90;99.90;;;;;;5077974;28;20035;-79
2023/03/15 03:48:30;;;;;;;3.80;0.40;;;0.90;99.90;;;;;;5094912;28;20035;-79
2023/03/15 03:50:56;;;;;;;1.85;0.43;;;0.90;99.90;;;;;;5094710;28;20118;-79
2023/03/15 03:53:22;;;;;;;0.50;0.30;;;0.90;99.90;;;;;;5077649;28;20031;-79
2023/03/15 03:55:48;;;;;;;2.13;0.20;;;0.90;99.90;;;;;;5094849;28;20031;-79
2023/03/15 03:58:13;;;;;;;5.18;0.60;;;0.90;99.90;;;;;;5094957;28;20046;-79
2023/03/15 04:00:40;;;;;;;1.33;0.50;;;0.90;99.90;;;;;;5094564;28;20054;-79
2023/03/15 04:03:06;;;;;;;6.43;0.70;;;0.90;99.90;;;;;;5077590;28;20055;-79
2023/03/15 04:05:32;;;;;;;0.95;0.40;;;0.90;99.90;;;;;;5095104;28;20039;-75
2023/03/15 04:07:58;;;;;;;3.65;0.50;;;0.80;99.90;;;;;;5094473;28;20173;-75
2023/03/15 04:10:25;;;;;;;2.00;0.60;;;0.80;99.90;;;;;;5080295;28;20032;-75
2023/03/15 04:12:56;;;;;;;1.95;0.38;;;0.80;99.90;;;;;;5081356;28;20063;-75
2023/03/15 04:15:22;;;;;;;3.58;0.70;;;0.80;99.90;;;;;;5081181;28;20044;-75
2023/03/15 04:17:54;;;;;;;1.83;0.57;;;0.80;99.90;;;;;;5081217;28;20045;-75
2023/03/15 04:20:21;;;;;;;2.85;0.65;;;0.80;99.90;;;;;;5097970;28;20050;-75
2023/03/15 04:22:48;;;;;;;3.90;0.50;;;0.70;99.90;;;;;;5081065;28;20066;-75
2023/03/15 04:25:15;;;;;;;3.58;0.65;;;0.80;99.90;;;;;;5097866;28;20057;-75
2023/03/15 04:27:41;;;;;;;0.45;0.25;;;0.70;99.90;;;;;;5097976;28;20032;-74
2023/03/15 04:30:07;;;;;;;0.68;0.55;;;0.70;99.90;;;;;;5098417;28;20171;-75
2023/03/15 04:32:32;;;;;;;2.03;0.50;;;0.70;99.90;;;;;;5097792;28;20039;-74
2023/03/15 04:34:58;;;;;;;0.40;0.40;;;0.70;99.90;;;;;;5098082;28;20501;-75
2023/03/15 04:37:24;;;;;;;7.55;0.85;;;0.70;99.90;;;;;;5100028;28;20042;-77
2023/03/15 04:39:51;;;;;;;1.05;0.38;;;0.60;99.90;;;;;;5101277;28;20071;-75
2023/03/15 04:42:17;;;;;;;0.90;0.52;;;0.70;99.90;;;;;;5081678;28;20103;-74
2023/03/15 04:44:42;;;;;;;1.75;0.40;;;0.70;99.90;;;;;;5081103;28;20036;-75
2023/03/15 04:47:08;;;;;;;0.43;0.43;;;0.60;99.90;;;;;;5081278;28;20038;-74
2023/03/15 04:49:34;;;;;;;1.05;0.40;;;0.60;99.90;;;;;;5097610;28;20035;-75
2023/03/15 04:51:59;;;;;;;0.20;0.20;;;0.60;99.90;;;;;;5097980;28;20044;-75
2023/03/15 04:54:25;;;;;;;0.20;0.20;;;0.60;99.90;;;;;;5097432;28;20067;-76
2023/03/15 04:56:50;;;;;;;2.13;0.45;;;0.60;99.90;;;;;;5097672;28;20511;-76
2023/03/15 04:59:16;;;;;;;1.08;0.60;;;0.50;99.90;;;;;;5097483;28;20063;-75
2023/03/15 05:01:42;;;;;;;0.22;0.22;;;0.50;99.90;;;;;;5097340;28;20055;-75
2023/03/15 05:04:07;;;;;;;3.92;0.68;;;0.50;99.90;;;;;;5097282;28;20542;-75
2023/03/15 05:06:33;;;;;;;0.47;0.40;;;0.50;99.90;;;;;;5080352;28;20040;-75
2023/03/15 05:08:59;;;;;;;0.77;0.55;;;0.50;99.90;;;;;;5097349;28;20383;-76
2023/03/15 05:11:25;;;;;;;0.20;0.20;;;1.70;99.90;;;;;;5097295;28;20491;-75
2023/03/15 05:13:50;;;;;;;1.90;0.60;;;0.50;99.90;;;;;;5097386;28;20038;-75
2023/03/15 05:16:16;;;;;;;0.40;0.40;;;0.40;99.90;;;;;;5097272;28;20044;-75
2023/03/15 05:18:44;;;;;;;3.00;0.45;;;0.50;99.90;;;;;;5080187;28;20039;-75
2023/03/15 05:21:13;;;;;;;2.65;0.40;;;0.50;99.90;;;;;;5095942;28;20113;-75
2023/03/15 05:23:38;;;;;;;1.08;0.50;;;0.50;99.90;;;;;;5097099;28;20040;-75
2023/03/15 05:26:04;;;;;;;0.70;0.50;;;0.50;99.90;;;;;;5096984;28;20046;-76
2023/03/15 05:28:30;;;;;;;0.95;0.52;;;0.50;99.90;;;;;;5097090;28;20147;-75
2023/03/15 05:30:57;;;;;;;2.30;0.65;;;0.50;99.90;;;;;;5096743;28;20111;-75
2023/03/15 05:33:23;;;;;;;0.65;0.40;;;0.50;99.90;;;;;;5096873;28;20044;-75
2023/03/15 05:35:51;;;;;;;0.47;0.40;;;0.40;99.90;;;;;;5096642;28;20039;-75
2023/03/15 05:38:17;;;;;;;0.47;0.40;;;0.50;99.90;;;;;;5096499;28;20039;-76
2023/03/15 05:40:44;;;;;;;1.25;0.77;;;0.50;99.90;;;;;;5096751;28;20049;-76
2023/03/15 05:43:10;;;;;;;3.90;0.73;;;0.40;99.90;;;;;;5096691;28;20035;-76
2023/03/15 05:45:36;;;;;;;0.40;0.40;;;0.40;99.90;;;;;;5096224;28;20040;-75
2023/03/15 05:48:02;;;;;;;1.33;0.52;;;0.50;99.90;;;;;;5096211;28;20229;-75
2023/03/15 05:50:27;;;;;;;4.95;0.85;;;0.50;99.90;;;;;;5096329;28;20126;-76
2023/03/15 05:52:53;;;;;;;1.13;0.57;;;0.50;99.90;;;;;;5096581;28;20185;-76
2023/03/15 05:55:19;;;;;;;2.75;0.50;;;0.50;99.90;;;;;;5096171;28;20067;-76
2023/03/15 05:57:45;;;;;;;1.13;0.40;;;0.60;99.90;;;;;;5079370;28;20036;-76
2023/03/15 06:00:13;;;;;;;1.23;0.30;;;0.50;99.90;;;;;;5096306;28;20039;-76
2023/03/15 06:02:40;;;;;;;3.78;0.82;;;0.50;99.90;;;;;;5095997;28;20095;-76
2023/03/15 06:05:06;;;;;;;3.33;0.85;;;0.50;99.90;;;;;;5079070;28;20046;-76
2023/03/15 06:07:32;;;;;;;2.47;0.65;;;0.50;99.90;;;;;;5078994;28;20505;-76
2023/03/15 06:09:57;;;;;;;2.55;0.47;;;0.50;99.90;;;;;;5079412;28;20093;-76
2023/03/15 06:12:23;;;;;;;1.67;0.70;;;0.50;99.90;;;;;;5095888;28;20051;-76
2023/03/15 06:14:49;;;;;;;1.75;0.47;;;0.50;99.90;;;;;;5095887;28;20043;-76
2023/03/15 06:17:14;;;;;;;0.30;0.30;;;0.50;99.90;;;;;;5095705;28;20071;-76
2023/03/15 06:19:40;;;;;;;2.53;0.30;;;0.50;99.90;;;;;;5096044;28;20043;-73
2023/03/15 06:22:05;;;;;;;1.85;0.73;;;0.50;99.90;;;;;;5095807;28;20075;-74
2023/03/15 06:24:31;;;;;;;1.73;0.45;;;0.50;99.90;;;;;;5095671;28;20129;-75
2023/03/15 06:26:57;;;;;;;2.17;0.30;;;0.60;99.90;;;;;;5095580;28;20043;-74
2023/03/15 06:29:23;;;;;;;0.30;0.22;;;0.60;99.90;;;;;;5095456;28;20073;-74
2023/03/15 06:31:49;;;;;;;0.80;0.40;;;0.60;99.90;;;;;;5095367;28;20031;-74
2023/03/15 06:34:15;;;;;;;0.32;0.32;;;0.60;99.90;;;;;;5095438;28;20028;-74
2023/03/15 06:36:41;;;;;;;3.42;0.52;;;0.60;99.90;;;;;;5095408;28;20047;-74
2023/03/15 06:39:07;;;;;;;0.82;0.63;;;0.60;99.90;;;;;;5095393;28;20044;-74
2023/03/15 06:41:33;;;;;;;2.45;0.93;;;0.60;99.90;;;;;;5095351;28;20087;-74
2023/03/15 06:43:59;;;;;;;0.65;0.60;;;0.70;99.90;;;;;;5095300;28;20405;-75
2023/03/15 06:46:24;;;;;;;0.60;0.35;;;0.70;99.90;;;;;;5095458;28;20055;-75
2023/03/15 06:48:50;;;;;;;1.27;0.50;;;0.60;99.90;;;;;;5078834;28;20219;-75
2023/03/15 06:51:16;;;;;;;0.28;0.25;;;0.70;99.90;;;;;;5095417;28;20040;-76
2023/03/15 06:53:41;;;;;;;1.25;0.60;;;0.80;99.90;;;;;;5095472;28;20100;-76
2023/03/15 06:56:07;;;;;;;3.30;0.40;;;0.80;99.90;;;;;;5095306;28;20082;-75
2023/03/15 06:58:32;;;;;;;6.70;1.23;;;0.90;99.90;;;;;;5095577;28;20031;-75
2023/03/15 07:00:58;;;;;;;3.63;0.52;;;1.10;99.90;;;;;;5078189;28;20085;-75
2023/03/15 07:03:24;;;;;;;1.55;0.55;;;1.10;99.90;;;;;;5095006;28;20426;-75
2023/03/15 07:05:52;;;;;;;5.32;0.30;;;1.20;99.90;;;;;;5095186;28;20485;-76
2023/03/15 07:08:22;;;;;;;1.50;0.80;;;1.30;99.90;;;;;;5078160;28;20032;-76
2023/03/15 07:10:49;;;;;;;1.30;0.57;;;1.40;99.90;;;;;;5095272;28;20028;-76
2023/03/15 07:13:15;;;;;;;0.82;0.50;;;1.50;99.90;;;;;;5095182;28;20032;-76
2023/03/15 07:15:40;;;;;;;0.50;0.20;;;1.60;99.90;;;;;;5095523;28;20043;-75
2023/03/15 07:18:06;;;;;;;1.35;0.43;;;1.80;99.90;;;;;;5095189;28;20031;-75
2023/03/15 07:20:32;;;;;;;1.73;0.63;;;1.80;99.90;;;;;;5095147;28;20124;-75
2023/03/15 07:22:57;;;;;;;7.88;0.55;;;1.90;99.90;;;;;;5078209;28;20043;-75
2023/03/15 07:25:24;;;;;;;3.40;0.30;;;2.00;99.90;;;;;;5095044;28;20192;-75
2023/03/15 07:27:51;;;;;;;5.22;0.50;;;2.10;99.90;;;;;;5095105;28;20039;-74
2023/03/15 07:30:18;;;;;;;1.25;0.40;;;2.30;99.90;;;;;;5078118;28;20040;-75
2023/03/15 07:32:43;;;;;;;5.32;0.60;;;2.30;99.90;;;;;;5095294;28;20031;-76
2023/03/15 07:35:09;;;;;;;1.02;0.52;;;2.50;99.90;;;;;;5094783;28;20098;-76
2023/03/15 07:37:35;;;;;;;0.50;0.30;;;2.60;99.90;;;;;;5094806;28;20037;-75
2023/03/15 07:40:08;;;;;;;1.00;0.50;;;2.70;99.90;;;;;;5094914;28;20036;-75
2023/03/15 07:42:38;;;;;;;1.52;0.45;;;2.80;99.90;;;;;;5094684;28;20082;-76
2023/03/15 07:45:04;;;;;;;2.92;0.80;;;2.90;98.80;;;;;;5097427;28;20080;-76
2023/03/15 07:47:31;;;;;;;1.33;0.63;;;3.00;94.40;;;;;;5099051;28;20130;-76
2023/03/15 07:49:56;;;;;;;1.70;0.32;;;3.00;90.10;;;;;;5082014;28;20038;-76
2023/03/15 07:52:22;;;;;;;0.73;0.50;;;3.10;81.10;;;;;;5098797;28;20036;-76
2023/03/15 07:54:48;;;;;;;4.22;0.98;;;3.20;83.90;;;;;;5098573;28;20032;-76
2023/03/15 07:57:14;;;;;;;0.73;0.43;;;3.30;72.30;;;;;;5098608;28;20107;-75
2023/03/15 07:59:39;;;;;;;1.40;0.50;;;3.40;63.00;;;;;;5098646;28;20071;-77
2023/03/15 08:02:05;;;;;;;0.45;0.45;;;3.50;43.50;;;;;;5098320;28;20517;-77
2023/03/15 08:04:31;;;;;;;1.80;0.40;;;3.50;23.30;;;;;;5098743;28;20043;-80
2023/03/15 08:06:57;;;;;;;1.38;0.43;;;3.60;8.00;;;;;;5081624;28;20101;-76
2023/03/15 08:09:22;;;;;;;1.13;0.40;;;3.70;10.10;;;;;;5098440;28;20071;-76
2023/03/15 08:11:48;;;;;;;3.42;1.00;;;3.80;16.00;;;;;;5098758;28;20067;-76
2023/03/15 08:14:14;;;;;;;1.75;0.60;;;3.90;1.00;;;;;;5098383;28;20036;-76
2023/03/15 08:16:39;;;;;;;3.33;1.02;;;4.00;1.00;;;;;;5098606;28;20043;-76
2023/03/15 08:19:05;;;;;;;1.83;0.30;;;4.10;1.00;;;;;;5098623;28;20066;-77
2023/03/15 08:21:32;;;;;;;0.77;0.52;;;4.20;1.00;;;;;;5098148;28;20130;-77
2023/03/15 08:23:59;;;;;;;1.15;0.30;;;4.30;1.00;;;;;;5098584;28;20090;-77
2023/03/15 08:26:24;;;;;;;2.45;0.85;;;4.60;99.90;;;;;;5098554;28;20491;-77
2023/03/15 08:28:50;;;;;;;0.88;0.80;;;4.50;99.90;;;;;;5098363;28;20042;-77
2023/03/15 08:31:16;;;;;;;2.15;0.50;;;4.50;99.90;;;;;;5098209;28;20483;-77
2023/03/15 08:33:42;;;;;;;1.38;0.50;;;4.60;1.00;;;;;;5098175;28;20150;-77
2023/03/15 08:36:08;;;;;;;5.20;0.65;;;4.70;1.00;;;;;;5098267;28;20067;-77
2023/03/15 08:38:34;;;;;;;5.10;0.77;;;4.80;1.00;;;;;;5081523;28;20035;-77
2023/03/15 08:41:00;;;;;;;2.78;0.40;;;4.90;99.90;;;;;;5098231;28;20047;-76
2023/03/15 08:43:26;;;;;;;0.63;0.50;;;5.00;87.20;;;;;;5081650;28;20035;-78
2023/03/15 08:45:52;;;;;;;5.18;0.88;;;5.00;48.60;;;;;;5098266;28;20169;-77
2023/03/15 08:48:17;;;;;;;1.42;0.60;;;5.10;99.90;;;;;;5098026;28;20042;-78
2023/03/15 08:50:43;;;;;;;2.00;0.50;;;5.70;1.00;;;;;;5098864;28;20035;-78
2023/03/15 08:53:09;;;;;;;0.50;0.45;;;5.20;99.90;;;;;;5081299;28;20031;-78
2023/03/15 08:55:36;;;;;;;1.50;0.40;;;5.30;1.00;;;;;;5097723;28;20039;-80
2023/03/15 08:58:03;;;;;;;2.10;0.88;;;5.30;99.90;;;;;;5098487;28;20079;-79
2023/03/15 09:00:29;;;;;;;0.73;0.22;;;5.30;99.90;;;;;;5098354;28;20035;-80
2023/03/15 09:02:55;;;;;;;4.13;0.80;;;5.50;99.90;;;;;;5083479;28;20060;-80
2023/03/15 09:05:22;;;;;;;1.45;0.55;;;5.40;99.90;;;;;;5061919;28;20085;-80
2023/03/15 09:07:48;;;;;;;4.85;0.88;;;5.50;1.00;;;;;;5078981;28;20098;-81
2023/03/15 09:10:16;;;;;;;2.22;0.88;;;5.50;1.00;;;;;;5078725;28;20035;-81
2023/03/15 09:12:43;;;;;;;0.32;0.30;;;5.70;99.90;;;;;;5078858;28;20032;-80
2023/03/15 09:15:10;;;;;;;3.17;1.10;;;;;;;;;;5078734;28;20421;-81
2023/03/15 09:17:37;;;;;;;1.40;0.70;;;;;;;;;;5078468;28;20096;-81
2023/03/15 09:20:06;;;;;;;0.98;0.50;;;;;;;;;;5079035;28;20476;-80
2023/03/15 09:22:32;;;;;;;2.13;0.60;;;;;;;;;;5078466;28;20090;-81
2023/03/15 09:24:58;;;;;;;2.17;0.52;;;6.00;99.90;;;;;;5061884;28;20039;-82
2023/03/15 09:27:24;;;;;;;3.47;0.60;;;;;;;;;;5078700;28;20404;-83
2023/03/15 09:29:50;;;;;;;2.60;0.75;;;;;;;;;;5061720;28;20117;-82
2023/03/15 09:32:16;;;;;;;0.93;0.40;;;;;;;;;;5078224;28;20127;-82
2023/03/15 09:34:42;;;;;;;0.80;0.32;;;;;;;;;;5077887;28;20040;-82
2023/03/15 09:37:08;;;;;;;0.75;0.40;;;;;;;;;;5077954;28;20050;-83
2023/03/15 09:39:34;;;;;;;1.15;0.45;;;;;;;;;;5077923;28;20043;-82
2023/03/15 09:42:00;;;;;;;2.40;0.38;;;;;;;;;;5060777;28;20101;-82
2023/03/15 09:44:34;;;;;;;3.95;0.85;;;;;;;;;;5077426;28;20407;-82
2023/03/15 09:47:12;;;;;;;2.10;0.70;;;;;;;;;;5076718;28;20411;-82
2023/03/15 09:49:44;;;;;;;3.25;1.05;;;;;;;;;;5076313;28;20449;-82
2023/03/15 09:52:10;;;;;;;1.15;0.50;;;;;;;;;;5078064;28;20375;-81
2023/03/15 09:54:48;;;;;;;1.52;0.40;;;;;;;;;;5077464;28;20040;-82
2023/03/15 09:57:16;;;;;;;4.03;0.47;;;;;;;;;;5077855;28;20044;-82
2023/03/15 09:59:44;;;;;;;3.28;0.40;;;;;;;;;;5078266;28;20088;-81
2023/03/15 10:02:13;;;;;;;0.50;0.32;;;;;;;;;;5077772;28;20055;-82
2023/03/15 10:04:41;;;;;;;0.35;0.35;;;;;;;;;;5077719;28;20052;-82
2023/03/15 10:07:11;;;;;;;5.50;0.75;;;;;;;;;;5076730;28;20128;-81
2023/03/15 10:09:37;;;;;;;0.80;0.52;;;7.00;99.90;;;;;;5078189;28;20491;-81
2023/03/15 10:12:08;;;;;;;0.82;0.60;;;6.90;99.90;;;;;;5076616;28;20043;-81
2023/03/15 10:14:55;;;;;;;1.17;0.50;;;7.00;99.90;;;;;;5075857;28;20128;-82
2023/03/15 10:18:03;;;;;;;4.43;0.63;;;7.00;99.90;;;;;;5075731;28;20051;-81
2023/03/15 10:20:35;;;;;;;0.40;0.40;;;7.10;99.90;;;;;;5075465;28;20426;-82
2023/03/15 10:23:13;;;;;;;1.52;0.70;;;7.10;99.90;;;;;;5075756;28;20040;-82
2023/03/15 10:25:39;;;;;;;1.17;0.50;;;7.30;99.90;;;;;;5059157;28;20075;-82
2023/03/15 10:28:26;;;;;;;0.50;0.30;;;8.50;99.90;;;;;;5058873;28;20082;-82
2023/03/15 10:30:55;;;;;;;3.85;0.43;;;7.50;99.90;;;;;;5059013;28;20070;-83
2023/03/15 10:33:31;;;;;;;2.00;0.50;;;7.60;99.90;;;;;;5075358;28;20040;-83
2023/03/15 10:35:57;;;;;;;2.83;0.90;;;7.60;99.90;;;;;;5059231;28;20047;-83
2023/03/15 10:38:25;;;;;;;0.30;0.30;;;7.70;99.90;;;;;;5075711;28;20085;-83
2023/03/15 10:41:04;;;;;;;1.58;0.43;;;7.70;99.90;;;;;;5075286;28;20464;-82
2023/03/15 10:43:35;;;;;;;3.05;0.52;;;7.70;99.90;;;;;;5075212;28;20067;-84
2023/03/15 10:46:01;;;;;;;1.40;0.50;;;7.70;99.90;;;;;;5075261;28;20047;-83
2023/03/15 10:48:30;;;;;;;1.55;0.40;;;7.70;99.90;;;;;;5075078;28;20044;-83
2023/03/15 10:50:56;;;;;;;2.25;0.55;;;7.60;99.90;;;;;;5075679;28;20119;-84
2023/03/15 10:53:24;;;;;;;0.90;0.43;;;7.60;99.90;;;;;;5075377;28;20032;-83
2023/03/15 10:56:06;;;;;;;1.52;0.90;;;7.40;99.90;;;;;;5075233;28;20051;-83
2023/03/15 10:58:47;;;;;;;4.15;0.52;;;7.40;99.90;;;;;;5058368;28;20126;-82
2023/03/15 11:01:28;;;;;;;2.43;0.40;;;7.40;99.90;;;;;;5075096;28;20078;-82
2023/03/15 11:04:01;;;;;;;1.20;0.60;;;7.50;99.90;;;;;;5058851;28;20384;-84
2023/03/15 11:06:27;;;;;;;1.20;0.40;;;7.80;99.90;;;;;;5058439;28;20384;-84
2023/03/15 11:09:14;;;;;;;0.98;0.65;;;8.10;99.90;;;;;;5076006;28;20488;-84
2023/03/15 11:11:50;;;;;;;1.90;0.45;;;8.20;99.90;;;;;;5075111;28;20046;-84
2023/03/15 11:14:17;;;;;;;1.80;0.52;;;8.00;99.90;;;;;;5058881;28;20083;-82
2023/03/15 11:16:50;;;;;;;1.92;0.40;;;8.10;99.90;;;;;;5076465;28;20040;-82
2023/03/15 11:19:20;;;;;;;0.75;0.43;;;8.00;99.90;;;;;;5063172;28;20044;-83
2023/03/15 11:21:46;;;;;;;1.13;0.52;;;7.90;99.90;;;;;;5080702;28;20036;-81
2023/03/15 11:24:30;;;;;;;1.67;0.88;;;8.00;99.90;;;;;;5063177;28;20079;-77
2023/03/15 11:27:02;;;;;;;0.63;0.52;;;7.90;99.90;;;;;;5078855;28;20356;-78
2023/03/15 11:29:34;;;;;;;2.85;0.40;;;8.00;99.90;;;;;;5078838;28;20093;-77
2023/03/15 11:32:09;;;;;;;0.35;0.35;;;8.30;99.90;;;;;;5078967;28;20044;-77
2023/03/15 11:34:50;;;;;;;3.88;0.57;;;8.50;99.90;;;;;;5078716;28;20036;-76
2023/03/15 11:37:21;;;;;;;3.15;0.50;;;8.80;99.90;;;;;;5078884;28;20079;-77
2023/03/15 11:40:06;;;;;;;1.27;0.68;;;8.70;99.90;;;;;;5078870;28;20047;-77
2023/03/15 11:42:47;;;;;;;2.25;0.60;;;8.50;99.90;;;;;;5078599;28;20457;-77
2023/03/15 11:45:43;;;;;;;5.57;0.82;;;8.20;99.90;;;;;;5062001;28;20036;-77
2023/03/15 11:48:31;;;;;;;1.95;0.50;;;8.00;99.90;;;;;;5078750;28;20036;-77
2023/03/15 11:51:00;;;;;;;2.25;0.50;;;7.70;99.90;;;;;;5061775;28;20036;-77
2023/03/15 11:53:33;;;;;;;1.17;0.98;;;7.80;99.90;;;;;;5078750;28;20075;-76
2023/03/15 11:56:22;;;;;;;1.90;0.65;;;8.00;99.90;;;;;;5078273;28;20048;-77
2023/03/15 11:59:03;;;;;;;4.00;0.80;;;9.20;99.90;;;;;;5077706;28;20100;-77
2023/03/15 12:01:29;;;;;;;2.45;0.68;;;8.80;99.90;;;;;;5078046;28;20044;-77
2023/03/15 12:04:23;;;;;;;2.67;0.80;;;9.20;99.90;;;;;;5078369;28;20135;-77
2023/03/15 12:06:53;;;;;;;1.65;0.65;;;9.40;99.90;;;;;;5078544;28;20047;-77
2023/03/15 12:09:35;;;;;;;1.13;0.82;;;9.90;99.90;;;;;;5078457;28;20067;-77
2023/03/15 12:12:25;;;;;;;1.02;0.50;;;9.80;99.90;;;;;;5078301;28;20043;-78
2023/03/15 12:15:18;;;;;;;0.75;0.40;;;10.20;99.90;;;;;;5077966;28;20043;-77
2023/03/15 12:17:53;;;;;;;0.90;0.50;;;10.50;99.90;;;;;;5078329;28;20044;-77
2023/03/15 12:20:35;;;;;;;1.63;0.73;;;11.00;99.90;;;;;;5077770;28;20047;-77
2023/03/15 12:23:16;;;;;;;2.42;1.08;;;11.20;99.90;;;;;;5078140;28;20044;-77
2023/03/15 12:25:57;;;;;;;1.85;0.45;;;11.20;99.90;;;;;;5077965;28;20506;-77
2023/03/15 12:28:40;;;;;;;3.30;0.60;;;11.20;99.90;;;;;;5077711;28;20076;-77
2023/03/15 12:31:13;;;;;;;2.22;0.98;;;11.30;99.90;;;;;;5060295;28;20032;-77
2023/03/15 12:33:52;;;;;;;2.22;0.85;;;11.20;99.90;;;;;;5077779;28;20483;-77
2023/03/15 12:36:33;;;;;;;2.15;0.60;;;11.30;99.90;;;;;;5061056;28;20131;-77
2023/03/15 12:39:21;;;;;;;0.98;0.70;;;11.50;99.90;;;;;;5077543;28;20051;-77
2023/03/15 12:41:49;;;;;;;2.80;0.50;;;11.70;99.90;;;;;;5077497;28;20071;-78
2023/03/15 12:44:30;;;;;;;1.75;0.50;;;11.40;99.90;;;;;;5077347;28;20051;-77
2023/03/15 12:47:04;;;;;;;2.58;0.73;;;10.80;99.90;;;;;;5077751;28;20089;-77
2023/03/15 12:49:37;;;;;;;0.77;0.50;;;10.30;99.90;;;;;;5077455;28;20085;-77
2023/03/15 12:52:14;;;;;;;3.53;1.10;;;9.80;99.90;;;;;;5077275;28;20037;-77
2023/03/15 12:54:50;;;;;;;2.80;1.13;;;9.70;99.90;;;;;;5077237;28;20040;-77
2023/03/15 12:57:43;;;;;;;2.55;0.73;;;10.40;99.90;;;;;;5077352;28;20040;-78
2023/03/15 13:00:17;;;;;;;1.20;0.60;;;10.80;99.90;;;;;;5060423;28;20085;-77
2023/03/15 13:02:45;;;;;;;4.90;0.80;;;10.70;99.90;;;;;;5077093;28;20063;-78
2023/03/15 13:05:29;;;;;;;3.17;0.70;;;11.60;99.90;;;;;;5076954;28;20400;-77
2023/03/15 13:08:08;;;;;;;0.75;0.50;;;11.20;99.90;;;;;;5077100;28;20036;-77
2023/03/15 13:11:10;;;;;;;3.00;0.65;;;11.50;99.90;;;;;;5076853;28;20032;-77
2023/03/15 13:13:57;;;;;;;0.88;0.50;;;11.80;99.90;;;;;;5076760;28;20459;-78